TimeCDT,TemperatureF,Dew PointF,Humidity,Sea Level PressureIn,VisibilityMPH,Wind Direction,Wind SpeedMPH,Gust SpeedMPH,PrecipitationIn,Events,Conditions,WindDirDegrees,DateUTC
12:56 AM,50.0,43.0,77,30.14,-9999.0,NNW,9.2,-,N/A,,Unknown,330,2012-09-09 05:56:00
1:56 AM,44.1,39.9,85,30.15,-9999.0,NNW,6.9,-,N/A,,Unknown,340,2012-09-09 06:56:00
2:56 AM,43.0,39.9,89,30.16,-9999.0,NNW,8.1,-,N/A,,Unknown,330,2012-09-09 07:56:00
3:56 AM,42.1,39.0,89,30.17,-9999.0,NNW,8.1,-,N/A,,Unknown,330,2012-09-09 08:56:00
4:56 AM,41.0,39.0,93,30.19,-9999.0,NNW,5.8,-,N/A,,Unknown,330,2012-09-09 09:56:00
5:56 AM,39.9,37.9,93,30.20,-9999.0,NW,5.8,-,N/A,,Unknown,320,2012-09-09 10:56:00
6:56 AM,39.9,37.9,93,30.22,-9999.0,NW,5.8,-,N/A,,Unknown,320,2012-09-09 11:56:00
7:56 AM,44.1,41.0,89,30.23,-9999.0,NNW,3.5,-,N/A,,Unknown,340,2012-09-09 12:56:00
8:56 AM,53.1,46.0,77,30.23,-9999.0,North,4.6,-,N/A,,Unknown,350,2012-09-09 13:56:00
9:56 AM,57.0,46.9,69,30.23,-9999.0,North,3.5,-,N/A,,Unknown,350,2012-09-09 14:56:00
10:56 AM,61.0,43.0,52,30.23,-9999.0,Variable,3.5,-,N/A,,Unknown,0,2012-09-09 15:56:00
11:56 AM,64.9,42.1,43,30.21,-9999.0,West,3.5,-,N/A,,Unknown,270,2012-09-09 16:56:00
12:56 PM,66.9,41.0,39,30.18,-9999.0,WSW,5.8,-,N/A,,Unknown,250,2012-09-09 17:56:00
1:56 PM,71.1,41.0,34,30.14,-9999.0,Calm,Calm,-,N/A,,Unknown,0,2012-09-09 18:56:00
2:56 PM,72.0,39.9,31,30.11,-9999.0,SW,8.1,-,N/A,,Unknown,230,2012-09-09 19:56:00
3:56 PM,75.0,39.9,28,30.08,-9999.0,WSW,8.1,-,N/A,,Unknown,240,2012-09-09 20:56:00
4:56 PM,75.0,33.1,22,30.05,-9999.0,South,6.9,16.1,N/A,,Unknown,170,2012-09-09 21:56:00
5:56 PM,75.9,37.9,25,30.03,-9999.0,SSW,6.9,-,N/A,,Unknown,210,2012-09-09 22:56:00
6:56 PM,73.9,32.0,21,30.01,-9999.0,South,6.9,-,N/A,,Unknown,180,2012-09-09 23:56:00
7:56 PM,64.0,39.9,41,30.01,-9999.0,SW,4.6,-,N/A,,Unknown,230,2012-09-10 00:56:00
8:56 PM,55.9,39.9,55,30.00,-9999.0,SSW,6.9,-,N/A,,Unknown,200,2012-09-10 01:56:00
9:56 PM,52.0,39.9,63,30.00,-9999.0,SSW,6.9,-,N/A,,Unknown,200,2012-09-10 02:56:00
10:56 PM,54.0,42.1,64,29.98,-9999.0,South,8.1,-,N/A,,Unknown,180,2012-09-10 03:56:00
11:56 PM,55.9,43.0,62,29.95,-9999.0,SSE,8.1,-,N/A,,Unknown,160,2012-09-10 04:56:00